sensor_id;sensor_type;location;lat;lon;timestamp;P1;durP1;ratioP1;P2;durP2;ratioP2
58244;SDS011;44550;43.864;25.986;2023-07-08T00:00:34;11.18;;;5.82;;
58244;SDS011;44550;43.864;25.986;2023-07-08T00:04:41;7.70;;;5.43;;
58244;SDS011;44550;43.864;25.986;2023-07-08T00:09:12;6.38;;;5.78;;
58244;SDS011;44550;43.864;25.986;2023-07-08T00:13:25;7.40;;;6.22;;
58244;SDS011;44550;43.864;25.986;2023-07-08T00:17:35;6.22;;;5.63;;
58244;SDS011;44550;43.864;25.986;2023-07-08T00:23:45;7.28;;;6.15;;
58244;SDS011;44550;43.864;25.986;2023-07-08T00:26:30;8.73;;;6.07;;
58244;SDS011;44550;43.864;25.986;2023-07-08T00:30:36;7.82;;;5.68;;
58244;SDS011;44550;43.864;25.986;2023-07-08T00:35:02;6.22;;;5.32;;
58244;SDS011;44550;43.864;25.986;2023-07-08T00:39:08;5.88;;;5.20;;
58244;SDS011;44550;43.864;25.986;2023-07-08T00:43:13;8.60;;;5.85;;
58244;SDS011;44550;43.864;25.986;2023-07-08T00:47:16;11.57;;;5.72;;
58244;SDS011;44550;43.864;25.986;2023-07-08T00:51:22;8.02;;;6.20;;
58244;SDS011;44550;43.864;25.986;2023-07-08T00:55:26;6.60;;;5.53;;
58244;SDS011;44550;43.864;25.986;2023-07-08T00:59:53;6.68;;;5.30;;
58244;SDS011;44550;43.864;25.986;2023-07-08T01:04:04;7.25;;;6.57;;
58244;SDS011;44550;43.864;25.986;2023-07-08T01:08:09;7.32;;;6.57;;
58244;SDS011;44550;43.864;25.986;2023-07-08T01:12:24;6.72;;;6.05;;
58244;SDS011;44550;43.864;25.986;2023-07-08T01:16:29;8.20;;;6.40;;
58244;SDS011;44550;43.864;25.986;2023-07-08T01:20:35;7.78;;;5.82;;
58244;SDS011;44550;43.864;25.986;2023-07-08T01:24:41;9.25;;;5.82;;
58244;SDS011;44550;43.864;25.986;2023-07-08T01:28:43;6.97;;;5.07;;
58244;SDS011;44550;43.864;25.986;2023-07-08T01:32:45;7.15;;;5.75;;
58244;SDS011;44550;43.864;25.986;2023-07-08T01:36:49;9.43;;;5.80;;
58244;SDS011;44550;43.864;25.986;2023-07-08T01:40:56;8.82;;;5.88;;
58244;SDS011;44550;43.864;25.986;2023-07-08T01:44:57;12.60;;;5.63;;
58244;SDS011;44550;43.864;25.986;2023-07-08T01:48:57;7.82;;;4.88;;
58244;SDS011;44550;43.864;25.986;2023-07-08T01:53:05;8.07;;;5.22;;
58244;SDS011;44550;43.864;25.986;2023-07-08T01:57:12;14.90;;;6.63;;
58244;SDS011;44550;43.864;25.986;2023-07-08T02:01:13;8.50;;;6.20;;
58244;SDS011;44550;43.864;25.986;2023-07-08T02:05:15;10.68;;;5.75;;
58244;SDS011;44550;43.864;25.986;2023-07-08T02:09:19;10.55;;;5.90;;
58244;SDS011;44550;43.864;25.986;2023-07-08T02:13:22;7.32;;;6.55;;
58244;SDS011;44550;43.864;25.986;2023-07-08T02:17:22;8.68;;;6.80;;
58244;SDS011;44550;43.864;25.986;2023-07-08T02:21:25;8.20;;;7.07;;
58244;SDS011;44550;43.864;25.986;2023-07-08T02:25:27;13.23;;;7.43;;
58244;SDS011;44550;43.864;25.986;2023-07-08T02:29:30;11.07;;;7.45;;
58244;SDS011;44550;43.864;25.986;2023-07-08T02:33:31;13.75;;;7.60;;
58244;SDS011;44550;43.864;25.986;2023-07-08T02:37:31;14.95;;;7.95;;
58244;SDS011;44550;43.864;25.986;2023-07-08T02:41:31;18.17;;;8.60;;
58244;SDS011;44550;43.864;25.986;2023-07-08T02:45:33;12.65;;;7.55;;
58244;SDS011;44550;43.864;25.986;2023-07-08T02:49:32;11.48;;;8.25;;
58244;SDS011;44550;43.864;25.986;2023-07-08T02:53:32;12.93;;;8.73;;
58244;SDS011;44550;43.864;25.986;2023-07-08T02:57:32;10.25;;;7.85;;
58244;SDS011;44550;43.864;25.986;2023-07-08T03:01:34;11.52;;;9.15;;
58244;SDS011;44550;43.864;25.986;2023-07-08T03:05:38;10.43;;;7.38;;
58244;SDS011;44550;43.864;25.986;2023-07-08T03:09:38;9.70;;;7.78;;
58244;SDS011;44550;43.864;25.986;2023-07-08T03:13:38;16.42;;;8.20;;
58244;SDS011;44550;43.864;25.986;2023-07-08T03:17:41;11.60;;;8.93;;
58244;SDS011;44550;43.864;25.986;2023-07-08T03:21:40;11.68;;;8.05;;
58244;SDS011;44550;43.864;25.986;2023-07-08T03:25:40;12.35;;;8.02;;
58244;SDS011;44550;43.864;25.986;2023-07-08T03:29:41;9.95;;;8.38;;
58244;SDS011;44550;43.864;25.986;2023-07-08T03:33:43;8.68;;;7.35;;
58244;SDS011;44550;43.864;25.986;2023-07-08T03:37:44;10.25;;;7.28;;
58244;SDS011;44550;43.864;25.986;2023-07-08T03:41:44;10.80;;;8.23;;
58244;SDS011;44550;43.864;25.986;2023-07-08T03:45:45;8.93;;;7.57;;
58244;SDS011;44550;43.864;25.986;2023-07-08T03:49:47;10.57;;;7.72;;
58244;SDS011;44550;43.864;25.986;2023-07-08T03:53:47;10.23;;;8.00;;
58244;SDS011;44550;43.864;25.986;2023-07-08T03:57:49;9.70;;;7.32;;
58244;SDS011;44550;43.864;25.986;2023-07-08T04:01:49;8.73;;;7.68;;
58244;SDS011;44550;43.864;25.986;2023-07-08T04:05:51;11.15;;;9.05;;
58244;SDS011;44550;43.864;25.986;2023-07-08T04:09:50;9.60;;;7.45;;
58244;SDS011;44550;43.864;25.986;2023-07-08T04:13:50;10.68;;;9.27;;
58244;SDS011;44550;43.864;25.986;2023-07-08T04:17:50;10.07;;;8.20;;
58244;SDS011;44550;43.864;25.986;2023-07-08T04:22:00;10.73;;;8.25;;
58244;SDS011;44550;43.864;25.986;2023-07-08T04:26:04;13.77;;;10.32;;
58244;SDS011;44550;43.864;25.986;2023-07-08T04:30:09;14.75;;;7.45;;
58244;SDS011;44550;43.864;25.986;2023-07-08T04:34:25;11.35;;;7.70;;
58244;SDS011;44550;43.864;25.986;2023-07-08T04:38:37;15.65;;;8.48;;
58244;SDS011;44550;43.864;25.986;2023-07-08T04:42:40;9.82;;;8.38;;
58244;SDS011;44550;43.864;25.986;2023-07-08T04:46:42;11.63;;;7.90;;
58244;SDS011;44550;43.864;25.986;2023-07-08T04:50:49;8.95;;;8.05;;
58244;SDS011;44550;43.864;25.986;2023-07-08T04:54:59;13.70;;;8.90;;
58244;SDS011;44550;43.864;25.986;2023-07-08T04:59:10;10.77;;;9.32;;
58244;SDS011;44550;43.864;25.986;2023-07-08T05:03:10;10.20;;;9.05;;
58244;SDS011;44550;43.864;25.986;2023-07-08T05:07:14;14.38;;;8.43;;
58244;SDS011;44550;43.864;25.986;2023-07-08T05:11:16;11.43;;;9.77;;
58244;SDS011;44550;43.864;25.986;2023-07-08T05:15:16;12.68;;;9.15;;
58244;SDS011;44550;43.864;25.986;2023-07-08T05:19:16;12.38;;;8.82;;
58244;SDS011;44550;43.864;25.986;2023-07-08T05:23:18;11.00;;;9.50;;
58244;SDS011;44550;43.864;25.986;2023-07-08T05:27:20;10.85;;;9.85;;
58244;SDS011;44550;43.864;25.986;2023-07-08T05:31:21;10.40;;;9.00;;
58244;SDS011;44550;43.864;25.986;2023-07-08T05:35:41;14.70;;;9.88;;
58244;SDS011;44550;43.864;25.986;2023-07-08T05:39:41;13.50;;;9.15;;
58244;SDS011;44550;43.864;25.986;2023-07-08T05:43:43;11.43;;;8.70;;
58244;SDS011;44550;43.864;25.986;2023-07-08T05:47:44;13.60;;;9.80;;
58244;SDS011;44550;43.864;25.986;2023-07-08T05:51:44;11.02;;;9.30;;
58244;SDS011;44550;43.864;25.986;2023-07-08T05:55:43;11.30;;;9.60;;
58244;SDS011;44550;43.864;25.986;2023-07-08T05:59:46;17.00;;;10.65;;
58244;SDS011;44550;43.864;25.986;2023-07-08T06:03:49;13.82;;;10.68;;
58244;SDS011;44550;43.864;25.986;2023-07-08T06:07:52;13.52;;;9.90;;
58244;SDS011;44550;43.864;25.986;2023-07-08T06:11:54;15.63;;;11.77;;
58244;SDS011;44550;43.864;25.986;2023-07-08T06:15:56;20.52;;;13.35;;
58244;SDS011;44550;43.864;25.986;2023-07-08T06:19:56;15.60;;;13.38;;
58244;SDS011;44550;43.864;25.986;2023-07-08T06:23:56;16.05;;;12.10;;
58244;SDS011;44550;43.864;25.986;2023-07-08T06:27:56;16.45;;;12.35;;
58244;SDS011;44550;43.864;25.986;2023-07-08T06:31:58;15.27;;;12.50;;
58244;SDS011;44550;43.864;25.986;2023-07-08T06:35:58;16.67;;;10.98;;
58244;SDS011;44550;43.864;25.986;2023-07-08T06:39:58;19.75;;;12.43;;
58244;SDS011;44550;43.864;25.986;2023-07-08T06:43:57;14.50;;;12.80;;
58244;SDS011;44550;43.864;25.986;2023-07-08T06:47:59;15.70;;;10.90;;
58244;SDS011;44550;43.864;25.986;2023-07-08T06:51:59;12.70;;;10.85;;
58244;SDS011;44550;43.864;25.986;2023-07-08T06:55:58;19.23;;;17.23;;
58244;SDS011;44550;43.864;25.986;2023-07-08T06:59:59;14.30;;;11.23;;
58244;SDS011;44550;43.864;25.986;2023-07-08T07:04:02;15.60;;;8.98;;
58244;SDS011;44550;43.864;25.986;2023-07-08T07:08:02;8.98;;;7.82;;
58244;SDS011;44550;43.864;25.986;2023-07-08T07:12:05;11.27;;;8.90;;
58244;SDS011;44550;43.864;25.986;2023-07-08T07:17:20;10.27;;;9.30;;
58244;SDS011;44550;43.864;25.986;2023-07-08T07:21:42;9.68;;;8.55;;
58244;SDS011;44550;43.864;25.986;2023-07-08T07:25:48;11.25;;;8.30;;
58244;SDS011;44550;43.864;25.986;2023-07-08T07:30:03;15.90;;;7.60;;
58244;SDS011;44550;43.864;25.986;2023-07-08T07:34:15;7.75;;;6.70;;
58244;SDS011;44550;43.864;25.986;2023-07-08T07:38:17;8.30;;;6.70;;
58244;SDS011;44550;43.864;25.986;2023-07-08T07:42:18;10.40;;;5.53;;
58244;SDS011;44550;43.864;25.986;2023-07-08T07:46:18;7.35;;;5.45;;
58244;SDS011;44550;43.864;25.986;2023-07-08T07:50:18;6.75;;;5.63;;
58244;SDS011;44550;43.864;25.986;2023-07-08T07:54:28;8.63;;;5.85;;
58244;SDS011;44550;43.864;25.986;2023-07-08T07:58:38;7.35;;;6.18;;
58244;SDS011;44550;43.864;25.986;2023-07-08T08:02:41;7.43;;;6.68;;
58244;SDS011;44550;43.864;25.986;2023-07-08T08:06:41;7.18;;;6.18;;
58244;SDS011;44550;43.864;25.986;2023-07-08T08:10:49;5.43;;;4.85;;
58244;SDS011;44550;43.864;25.986;2023-07-08T08:14:51;4.30;;;3.90;;
58244;SDS011;44550;43.864;25.986;2023-07-08T08:18:51;6.68;;;4.28;;
58244;SDS011;44550;43.864;25.986;2023-07-08T08:22:52;5.70;;;3.70;;
58244;SDS011;44550;43.864;25.986;2023-07-08T08:26:55;4.75;;;4.25;;
58244;SDS011;44550;43.864;25.986;2023-07-08T08:31:02;4.95;;;3.50;;
58244;SDS011;44550;43.864;25.986;2023-07-08T08:35:03;5.93;;;3.80;;
58244;SDS011;44550;43.864;25.986;2023-07-08T08:39:03;4.85;;;3.95;;
58244;SDS011;44550;43.864;25.986;2023-07-08T08:43:06;5.07;;;4.30;;
58244;SDS011;44550;43.864;25.986;2023-07-08T08:47:15;3.63;;;3.33;;
58244;SDS011;44550;43.864;25.986;2023-07-08T08:51:24;5.80;;;3.35;;
58244;SDS011;44550;43.864;25.986;2023-07-08T08:55:29;3.28;;;2.85;;
58244;SDS011;44550;43.864;25.986;2023-07-08T08:59:38;4.60;;;2.92;;
58244;SDS011;44550;43.864;25.986;2023-07-08T09:03:45;4.63;;;3.20;;
58244;SDS011;44550;43.864;25.986;2023-07-08T09:07:56;4.95;;;3.05;;
58244;SDS011;44550;43.864;25.986;2023-07-08T09:12:25;6.13;;;3.10;;
58244;SDS011;44550;43.864;25.986;2023-07-08T09:16:52;4.55;;;2.88;;
58244;SDS011;44550;43.864;25.986;2023-07-08T09:21:13;6.43;;;2.80;;
58244;SDS011;44550;43.864;25.986;2023-07-08T09:25:26;7.90;;;2.20;;
58244;SDS011;44550;43.864;25.986;2023-07-08T09:30:18;3.03;;;2.80;;
58244;SDS011;44550;43.864;25.986;2023-07-08T10:04:10;4.65;;;3.60;;
58244;SDS011;44550;43.864;25.986;2023-07-08T10:25:28;3.90;;;3.60;;
58244;SDS011;44550;43.864;25.986;2023-07-08T10:57:10;4.00;;;2.70;;
58244;SDS011;44550;43.864;25.986;2023-07-08T11:01:40;3.45;;;3.15;;
58244;SDS011;44550;43.864;25.986;2023-07-08T11:06:37;5.60;;;3.40;;
58244;SDS011;44550;43.864;25.986;2023-07-08T12:57:18;4.68;;;3.22;;
58244;SDS011;44550;43.864;25.986;2023-07-08T13:02:26;5.10;;;4.22;;
